<?xml version="1.0" encoding="UTF-8" standalone="no" ?>
<gpx xmlns="http://www.topografix.com/GPX/1/1" xmlns:xsi="http://www.w3.org/2001/XMLSchema-instance" xsi:schemaLocation="http://www.topografix.com/GPX/1/1 http://www.topografix.com/GPX/1/1/gpx.xsd" version="1.1" creator="VisuGPX - https://www.visugpx.com">
  <metadata>
    <name>Lods - Hautepierre - Mouthier</name>
    <desc><![CDATA[Route created on plotaroute.com]]></desc>
  </metadata>
  <trk>
    <name><![CDATA[Lods - Hautepierre - Mouthier]]></name>
    <trkseg>
      <trkpt lat="47.04351" lon="6.24914">
        <ele>386</ele>
        <time>2022-06-05T00:00:00Z</time>
      </trkpt>
      <trkpt lat="47.04348" lon="6.24922">
        <ele>386</ele>
        <time>2022-06-05T00:00:05Z</time>
      </trkpt>
      <trkpt lat="47.0434" lon="6.24932">
        <ele>385</ele>
        <time>2022-06-05T00:00:13Z</time>
      </trkpt>
      <trkpt lat="47.04336" lon="6.24934">
        <ele>386</ele>
        <time>2022-06-05T00:00:17Z</time>
      </trkpt>
      <trkpt lat="47.04334" lon="6.24946">
        <ele>384</ele>
        <time>2022-06-05T00:00:23Z</time>
      </trkpt>
      <trkpt lat="47.04335" lon="6.24956">
        <ele>382</ele>
        <time>2022-06-05T00:00:29Z</time>
      </trkpt>
      <trkpt lat="47.04361" lon="6.25009">
        <ele>378</ele>
        <time>2022-06-05T00:01:04Z</time>
      </trkpt>
      <trkpt lat="47.04379" lon="6.24978">
        <ele>380</ele>
        <time>2022-06-05T00:01:27Z</time>
      </trkpt>
      <trkpt lat="47.04405" lon="6.24983">
        <ele>381</ele>
        <time>2022-06-05T00:01:48Z</time>
      </trkpt>
      <trkpt lat="47.04413" lon="6.24978">
        <ele>381</ele>
        <time>2022-06-05T00:01:54Z</time>
      </trkpt>
      <trkpt lat="47.0442" lon="6.24968">
        <ele>382</ele>
        <time>2022-06-05T00:02:03Z</time>
      </trkpt>
      <trkpt lat="47.0444" lon="6.24921">
        <ele>384</ele>
        <time>2022-06-05T00:02:33Z</time>
      </trkpt>
      <trkpt lat="47.04445" lon="6.24901">
        <ele>384</ele>
        <time>2022-06-05T00:02:45Z</time>
      </trkpt>
      <trkpt lat="47.04454" lon="6.24852">
        <ele>385</ele>
        <time>2022-06-05T00:03:12Z</time>
      </trkpt>
      <trkpt lat="47.0446" lon="6.24798">
        <ele>386</ele>
        <time>2022-06-05T00:03:42Z</time>
      </trkpt>
      <trkpt lat="47.04465" lon="6.24787">
        <ele>388</ele>
        <time>2022-06-05T00:03:49Z</time>
      </trkpt>
      <trkpt lat="47.04472" lon="6.24783">
        <ele>390</ele>
        <time>2022-06-05T00:03:56Z</time>
      </trkpt>
      <trkpt lat="47.04486" lon="6.24779">
        <ele>394</ele>
        <time>2022-06-05T00:04:07Z</time>
      </trkpt>
      <trkpt lat="47.04505" lon="6.248">
        <ele>400</ele>
        <time>2022-06-05T00:04:26Z</time>
      </trkpt>
      <trkpt lat="47.04517" lon="6.24823">
        <ele>403</ele>
        <time>2022-06-05T00:04:42Z</time>
      </trkpt>
      <trkpt lat="47.04533" lon="6.24845">
        <ele>408</ele>
        <time>2022-06-05T00:04:59Z</time>
      </trkpt>
      <trkpt lat="47.04553" lon="6.24857">
        <ele>415</ele>
        <time>2022-06-05T00:05:17Z</time>
      </trkpt>
      <trkpt lat="47.04592" lon="6.24869">
        <ele>428</ele>
        <time>2022-06-05T00:05:49Z</time>
      </trkpt>
      <trkpt lat="47.04599" lon="6.24868">
        <ele>429</ele>
        <time>2022-06-05T00:05:54Z</time>
      </trkpt>
      <trkpt lat="47.04615" lon="6.24857">
        <ele>432</ele>
        <time>2022-06-05T00:06:09Z</time>
      </trkpt>
      <trkpt lat="47.04652" lon="6.24846">
        <ele>442</ele>
        <time>2022-06-05T00:06:39Z</time>
      </trkpt>
      <trkpt lat="47.04676" lon="6.24872">
        <ele>451</ele>
        <time>2022-06-05T00:07:02Z</time>
      </trkpt>
      <trkpt lat="47.04688" lon="6.2489">
        <ele>455</ele>
        <time>2022-06-05T00:07:16Z</time>
      </trkpt>
      <trkpt lat="47.04715" lon="6.24941">
        <ele>463</ele>
        <time>2022-06-05T00:07:52Z</time>
      </trkpt>
      <trkpt lat="47.04705" lon="6.24941">
        <ele>462</ele>
        <time>2022-06-05T00:08:00Z</time>
      </trkpt>
      <trkpt lat="47.0468" lon="6.24928">
        <ele>457</ele>
        <time>2022-06-05T00:08:21Z</time>
      </trkpt>
      <trkpt lat="47.04674" lon="6.24931">
        <ele>457</ele>
        <time>2022-06-05T00:08:26Z</time>
      </trkpt>
      <trkpt lat="47.04673" lon="6.24939">
        <ele>458</ele>
        <time>2022-06-05T00:08:31Z</time>
      </trkpt>
      <trkpt lat="47.0468" lon="6.2495">
        <ele>461</ele>
        <time>2022-06-05T00:08:39Z</time>
      </trkpt>
      <trkpt lat="47.04719" lon="6.2499">
        <ele>466</ele>
        <time>2022-06-05T00:09:17Z</time>
      </trkpt>
      <trkpt lat="47.04728" lon="6.2501">
        <ele>467</ele>
        <time>2022-06-05T00:09:30Z</time>
      </trkpt>
      <trkpt lat="47.04728" lon="6.25016">
        <ele>467</ele>
        <time>2022-06-05T00:09:33Z</time>
      </trkpt>
      <trkpt lat="47.04724" lon="6.25021">
        <ele>468</ele>
        <time>2022-06-05T00:09:37Z</time>
      </trkpt>
      <trkpt lat="47.04702" lon="6.25014">
        <ele>469</ele>
        <time>2022-06-05T00:09:56Z</time>
      </trkpt>
      <trkpt lat="47.04692" lon="6.25018">
        <ele>469</ele>
        <time>2022-06-05T00:10:03Z</time>
      </trkpt>
      <trkpt lat="47.04686" lon="6.25026">
        <ele>470</ele>
        <time>2022-06-05T00:10:10Z</time>
      </trkpt>
      <trkpt lat="47.04685" lon="6.25065">
        <ele>471</ele>
        <time>2022-06-05T00:10:31Z</time>
      </trkpt>
      <trkpt lat="47.0469" lon="6.25123">
        <ele>471</ele>
        <time>2022-06-05T00:11:03Z</time>
      </trkpt>
      <trkpt lat="47.04702" lon="6.25156">
        <ele>472</ele>
        <time>2022-06-05T00:11:24Z</time>
      </trkpt>
      <trkpt lat="47.04708" lon="6.25179">
        <ele>472</ele>
        <time>2022-06-05T00:11:37Z</time>
      </trkpt>
      <trkpt lat="47.04716" lon="6.25243">
        <ele>474</ele>
        <time>2022-06-05T00:12:13Z</time>
      </trkpt>
      <trkpt lat="47.04716" lon="6.25304">
        <ele>478</ele>
        <time>2022-06-05T00:12:46Z</time>
      </trkpt>
      <trkpt lat="47.04712" lon="6.25337">
        <ele>480</ele>
        <time>2022-06-05T00:13:05Z</time>
      </trkpt>
      <trkpt lat="47.04698" lon="6.25355">
        <ele>481</ele>
        <time>2022-06-05T00:13:20Z</time>
      </trkpt>
      <trkpt lat="47.0466" lon="6.25385">
        <ele>485</ele>
        <time>2022-06-05T00:13:54Z</time>
      </trkpt>
      <trkpt lat="47.04635" lon="6.25427">
        <ele>492</ele>
        <time>2022-06-05T00:14:24Z</time>
      </trkpt>
      <trkpt lat="47.04637" lon="6.25444">
        <ele>493</ele>
        <time>2022-06-05T00:14:34Z</time>
      </trkpt>
      <trkpt lat="47.04635" lon="6.25468">
        <ele>496</ele>
        <time>2022-06-05T00:14:47Z</time>
      </trkpt>
      <trkpt lat="47.04621" lon="6.25499">
        <ele>501</ele>
        <time>2022-06-05T00:15:07Z</time>
      </trkpt>
      <trkpt lat="47.04617" lon="6.25605">
        <ele>515</ele>
        <time>2022-06-05T00:16:05Z</time>
      </trkpt>
      <trkpt lat="47.0462" lon="6.25678">
        <ele>521</ele>
        <time>2022-06-05T00:16:45Z</time>
      </trkpt>
      <trkpt lat="47.04633" lon="6.2575">
        <ele>526</ele>
        <time>2022-06-05T00:17:26Z</time>
      </trkpt>
      <trkpt lat="47.04642" lon="6.25787">
        <ele>529</ele>
        <time>2022-06-05T00:17:47Z</time>
      </trkpt>
      <trkpt lat="47.04668" lon="6.25835">
        <ele>534</ele>
        <time>2022-06-05T00:18:21Z</time>
      </trkpt>
      <trkpt lat="47.0473" lon="6.25933">
        <ele>548</ele>
        <time>2022-06-05T00:19:34Z</time>
      </trkpt>
      <trkpt lat="47.04734" lon="6.25949">
        <ele>549</ele>
        <time>2022-06-05T00:19:43Z</time>
      </trkpt>
      <trkpt lat="47.04754" lon="6.25976">
        <ele>554</ele>
        <time>2022-06-05T00:20:05Z</time>
      </trkpt>
      <trkpt lat="47.04804" lon="6.26035">
        <ele>564</ele>
        <time>2022-06-05T00:20:56Z</time>
      </trkpt>
      <trkpt lat="47.04871" lon="6.26092">
        <ele>577</ele>
        <time>2022-06-05T00:21:59Z</time>
      </trkpt>
      <trkpt lat="47.04927" lon="6.26144">
        <ele>586</ele>
        <time>2022-06-05T00:22:52Z</time>
      </trkpt>
      <trkpt lat="47.0497" lon="6.26193">
        <ele>590</ele>
        <time>2022-06-05T00:23:35Z</time>
      </trkpt>
      <trkpt lat="47.04997" lon="6.2623">
        <ele>595</ele>
        <time>2022-06-05T00:24:05Z</time>
      </trkpt>
      <trkpt lat="47.05033" lon="6.26276">
        <ele>595</ele>
        <time>2022-06-05T00:24:43Z</time>
      </trkpt>
      <trkpt lat="47.05076" lon="6.26343">
        <ele>601</ele>
        <time>2022-06-05T00:25:33Z</time>
      </trkpt>
      <trkpt lat="47.05102" lon="6.26405">
        <ele>598</ele>
        <time>2022-06-05T00:26:13Z</time>
      </trkpt>
      <trkpt lat="47.05128" lon="6.2649">
        <ele>595</ele>
        <time>2022-06-05T00:27:04Z</time>
      </trkpt>
      <trkpt lat="47.05134" lon="6.26541">
        <ele>597</ele>
        <time>2022-06-05T00:27:32Z</time>
      </trkpt>
      <trkpt lat="47.05151" lon="6.26583">
        <ele>601</ele>
        <time>2022-06-05T00:27:59Z</time>
      </trkpt>
      <trkpt lat="47.05158" lon="6.26617">
        <ele>605</ele>
        <time>2022-06-05T00:28:18Z</time>
      </trkpt>
      <trkpt lat="47.0516" lon="6.26618">
        <ele>605</ele>
        <time>2022-06-05T00:28:20Z</time>
      </trkpt>
      <trkpt lat="47.05151" lon="6.26618">
        <ele>605</ele>
        <time>2022-06-05T00:28:27Z</time>
      </trkpt>
      <trkpt lat="47.05147" lon="6.26719">
        <ele>617</ele>
        <time>2022-06-05T00:29:21Z</time>
      </trkpt>
      <trkpt lat="47.05142" lon="6.26768">
        <ele>625</ele>
        <time>2022-06-05T00:29:48Z</time>
      </trkpt>
      <trkpt lat="47.05141" lon="6.26804">
        <ele>632</ele>
        <time>2022-06-05T00:30:08Z</time>
      </trkpt>
      <trkpt lat="47.05154" lon="6.26838">
        <ele>638</ele>
        <time>2022-06-05T00:30:30Z</time>
      </trkpt>
      <trkpt lat="47.05175" lon="6.26925">
        <ele>648</ele>
        <time>2022-06-05T00:31:20Z</time>
      </trkpt>
      <trkpt lat="47.05177" lon="6.26947">
        <ele>649</ele>
        <time>2022-06-05T00:31:32Z</time>
      </trkpt>
      <trkpt lat="47.05175" lon="6.26976">
        <ele>652</ele>
        <time>2022-06-05T00:31:48Z</time>
      </trkpt>
      <trkpt lat="47.05164" lon="6.27025">
        <ele>655</ele>
        <time>2022-06-05T00:32:16Z</time>
      </trkpt>
      <trkpt lat="47.05151" lon="6.2711">
        <ele>661</ele>
        <time>2022-06-05T00:33:04Z</time>
      </trkpt>
      <trkpt lat="47.05144" lon="6.27136">
        <ele>663</ele>
        <time>2022-06-05T00:33:19Z</time>
      </trkpt>
      <trkpt lat="47.05137" lon="6.27152">
        <ele>664</ele>
        <time>2022-06-05T00:33:29Z</time>
      </trkpt>
      <trkpt lat="47.05134" lon="6.27173">
        <ele>666</ele>
        <time>2022-06-05T00:33:41Z</time>
      </trkpt>
      <trkpt lat="47.05128" lon="6.27251">
        <ele>676</ele>
        <time>2022-06-05T00:34:24Z</time>
      </trkpt>
      <trkpt lat="47.05123" lon="6.27286">
        <ele>679</ele>
        <time>2022-06-05T00:34:44Z</time>
      </trkpt>
      <trkpt lat="47.0511" lon="6.27482">
        <ele>699</ele>
        <time>2022-06-05T00:36:31Z</time>
      </trkpt>
      <trkpt lat="47.05123" lon="6.27477">
        <ele>703</ele>
        <time>2022-06-05T00:36:42Z</time>
      </trkpt>
      <trkpt lat="47.0515" lon="6.27478">
        <ele>712</ele>
        <time>2022-06-05T00:37:04Z</time>
      </trkpt>
      <trkpt lat="47.05191" lon="6.27499">
        <ele>732</ele>
        <time>2022-06-05T00:37:38Z</time>
      </trkpt>
      <trkpt lat="47.05197" lon="6.27496">
        <ele>733</ele>
        <time>2022-06-05T00:37:43Z</time>
      </trkpt>
      <trkpt lat="47.05222" lon="6.27453">
        <ele>731</ele>
        <time>2022-06-05T00:38:14Z</time>
      </trkpt>
      <trkpt lat="47.05248" lon="6.27434">
        <ele>733</ele>
        <time>2022-06-05T00:38:38Z</time>
      </trkpt>
      <trkpt lat="47.05282" lon="6.27404">
        <ele>732</ele>
        <time>2022-06-05T00:39:09Z</time>
      </trkpt>
      <trkpt lat="47.05317" lon="6.27382">
        <ele>733</ele>
        <time>2022-06-05T00:39:40Z</time>
      </trkpt>
      <trkpt lat="47.0535" lon="6.27401">
        <ele>738</ele>
        <time>2022-06-05T00:40:09Z</time>
      </trkpt>
      <trkpt lat="47.05354" lon="6.27422">
        <ele>744</ele>
        <time>2022-06-05T00:40:20Z</time>
      </trkpt>
      <trkpt lat="47.05349" lon="6.27451">
        <ele>755</ele>
        <time>2022-06-05T00:40:36Z</time>
      </trkpt>
      <trkpt lat="47.05356" lon="6.27511">
        <ele>770</ele>
        <time>2022-06-05T00:41:10Z</time>
      </trkpt>
      <trkpt lat="47.05353" lon="6.27569">
        <ele>784</ele>
        <time>2022-06-05T00:41:41Z</time>
      </trkpt>
      <trkpt lat="47.0533" lon="6.27577">
        <ele>792</ele>
        <time>2022-06-05T00:42:01Z</time>
      </trkpt>
      <trkpt lat="47.05314" lon="6.27594">
        <ele>793</ele>
        <time>2022-06-05T00:42:17Z</time>
      </trkpt>
      <trkpt lat="47.05285" lon="6.2765">
        <ele>803</ele>
        <time>2022-06-05T00:42:55Z</time>
      </trkpt>
      <trkpt lat="47.05267" lon="6.27672">
        <ele>808</ele>
        <time>2022-06-05T00:43:13Z</time>
      </trkpt>
      <trkpt lat="47.05239" lon="6.27687">
        <ele>808</ele>
        <time>2022-06-05T00:43:37Z</time>
      </trkpt>
      <trkpt lat="47.05223" lon="6.27704">
        <ele>806</ele>
        <time>2022-06-05T00:43:53Z</time>
      </trkpt>
      <trkpt lat="47.05202" lon="6.27698">
        <ele>799</ele>
        <time>2022-06-05T00:44:10Z</time>
      </trkpt>
      <trkpt lat="47.05199" lon="6.27714">
        <ele>803</ele>
        <time>2022-06-05T00:44:20Z</time>
      </trkpt>
      <trkpt lat="47.0519" lon="6.27733">
        <ele>808</ele>
        <time>2022-06-05T00:44:32Z</time>
      </trkpt>
      <trkpt lat="47.05161" lon="6.27762">
        <ele>810</ele>
        <time>2022-06-05T00:45:00Z</time>
      </trkpt>
      <trkpt lat="47.05134" lon="6.2779">
        <ele>807</ele>
        <time>2022-06-05T00:45:27Z</time>
      </trkpt>
      <trkpt lat="47.05113" lon="6.2784">
        <ele>817</ele>
        <time>2022-06-05T00:45:59Z</time>
      </trkpt>
      <trkpt lat="47.05107" lon="6.27848">
        <ele>818</ele>
        <time>2022-06-05T00:46:05Z</time>
      </trkpt>
      <trkpt lat="47.05098" lon="6.27852">
        <ele>818</ele>
        <time>2022-06-05T00:46:13Z</time>
      </trkpt>
      <trkpt lat="47.05067" lon="6.27855">
        <ele>813</ele>
        <time>2022-06-05T00:46:38Z</time>
      </trkpt>
      <trkpt lat="47.05047" lon="6.27869">
        <ele>813</ele>
        <time>2022-06-05T00:46:56Z</time>
      </trkpt>
      <trkpt lat="47.05029" lon="6.27887">
        <ele>817</ele>
        <time>2022-06-05T00:47:13Z</time>
      </trkpt>
      <trkpt lat="47.05013" lon="6.27898">
        <ele>819</ele>
        <time>2022-06-05T00:47:27Z</time>
      </trkpt>
      <trkpt lat="47.04981" lon="6.27949">
        <ele>828</ele>
        <time>2022-06-05T00:48:05Z</time>
      </trkpt>
      <trkpt lat="47.04956" lon="6.27963">
        <ele>823</ele>
        <time>2022-06-05T00:48:26Z</time>
      </trkpt>
      <trkpt lat="47.04961" lon="6.27984">
        <ele>833</ele>
        <time>2022-06-05T00:48:39Z</time>
      </trkpt>
      <trkpt lat="47.04963" lon="6.28013">
        <ele>842</ele>
        <time>2022-06-05T00:48:55Z</time>
      </trkpt>
      <trkpt lat="47.0496" lon="6.28067">
        <ele>850</ele>
        <time>2022-06-05T00:49:24Z</time>
      </trkpt>
      <trkpt lat="47.04943" lon="6.28154">
        <ele>857</ele>
        <time>2022-06-05T00:50:13Z</time>
      </trkpt>
      <trkpt lat="47.04934" lon="6.28192">
        <ele>859</ele>
        <time>2022-06-05T00:50:36Z</time>
      </trkpt>
      <trkpt lat="47.04932" lon="6.28195">
        <ele>859</ele>
        <time>2022-06-05T00:50:38Z</time>
      </trkpt>
      <trkpt lat="47.04929" lon="6.28204">
        <ele>859</ele>
        <time>2022-06-05T00:50:43Z</time>
      </trkpt>
      <trkpt lat="47.04919" lon="6.28308">
        <ele>857</ele>
        <time>2022-06-05T00:51:41Z</time>
      </trkpt>
      <trkpt lat="47.04925" lon="6.28354">
        <ele>854</ele>
        <time>2022-06-05T00:52:06Z</time>
      </trkpt>
      <trkpt lat="47.04933" lon="6.28382">
        <ele>853</ele>
        <time>2022-06-05T00:52:23Z</time>
      </trkpt>
      <trkpt lat="47.04934" lon="6.28407">
        <ele>851</ele>
        <time>2022-06-05T00:52:37Z</time>
      </trkpt>
      <trkpt lat="47.04948" lon="6.28499">
        <ele>849</ele>
        <time>2022-06-05T00:53:28Z</time>
      </trkpt>
      <trkpt lat="47.04944" lon="6.2851">
        <ele>848</ele>
        <time>2022-06-05T00:53:35Z</time>
      </trkpt>
      <trkpt lat="47.04944" lon="6.28531">
        <ele>847</ele>
        <time>2022-06-05T00:53:46Z</time>
      </trkpt>
      <trkpt lat="47.04932" lon="6.28558">
        <ele>844</ele>
        <time>2022-06-05T00:54:04Z</time>
      </trkpt>
      <trkpt lat="47.04931" lon="6.2858">
        <ele>843</ele>
        <time>2022-06-05T00:54:16Z</time>
      </trkpt>
      <trkpt lat="47.04932" lon="6.28599">
        <ele>842</ele>
        <time>2022-06-05T00:54:26Z</time>
      </trkpt>
      <trkpt lat="47.04929" lon="6.28631">
        <ele>838</ele>
        <time>2022-06-05T00:54:44Z</time>
      </trkpt>
      <trkpt lat="47.04931" lon="6.28643">
        <ele>837</ele>
        <time>2022-06-05T00:54:50Z</time>
      </trkpt>
      <trkpt lat="47.04929" lon="6.28649">
        <ele>836</ele>
        <time>2022-06-05T00:54:54Z</time>
      </trkpt>
      <trkpt lat="47.04929" lon="6.28662">
        <ele>835</ele>
        <time>2022-06-05T00:55:01Z</time>
      </trkpt>
      <trkpt lat="47.0492" lon="6.28665">
        <ele>832</ele>
        <time>2022-06-05T00:55:08Z</time>
      </trkpt>
      <trkpt lat="47.0491" lon="6.28663">
        <ele>830</ele>
        <time>2022-06-05T00:55:17Z</time>
      </trkpt>
      <trkpt lat="47.04904" lon="6.28659">
        <ele>829</ele>
        <time>2022-06-05T00:55:22Z</time>
      </trkpt>
      <trkpt lat="47.04895" lon="6.28649">
        <ele>827</ele>
        <time>2022-06-05T00:55:31Z</time>
      </trkpt>
      <trkpt lat="47.04889" lon="6.28645">
        <ele>826</ele>
        <time>2022-06-05T00:55:36Z</time>
      </trkpt>
      <trkpt lat="47.04883" lon="6.28648">
        <ele>824</ele>
        <time>2022-06-05T00:55:42Z</time>
      </trkpt>
      <trkpt lat="47.04875" lon="6.28641">
        <ele>823</ele>
        <time>2022-06-05T00:55:49Z</time>
      </trkpt>
      <trkpt lat="47.04868" lon="6.28631">
        <ele>822</ele>
        <time>2022-06-05T00:55:56Z</time>
      </trkpt>
      <trkpt lat="47.04841" lon="6.28621">
        <ele>815</ele>
        <time>2022-06-05T00:56:19Z</time>
      </trkpt>
      <trkpt lat="47.04835" lon="6.28611">
        <ele>813</ele>
        <time>2022-06-05T00:56:26Z</time>
      </trkpt>
      <trkpt lat="47.0483" lon="6.28607">
        <ele>813</ele>
        <time>2022-06-05T00:56:31Z</time>
      </trkpt>
      <trkpt lat="47.04813" lon="6.28603">
        <ele>810</ele>
        <time>2022-06-05T00:56:45Z</time>
      </trkpt>
      <trkpt lat="47.048" lon="6.28605">
        <ele>809</ele>
        <time>2022-06-05T00:56:55Z</time>
      </trkpt>
      <trkpt lat="47.04788" lon="6.28609">
        <ele>807</ele>
        <time>2022-06-05T00:57:05Z</time>
      </trkpt>
      <trkpt lat="47.04779" lon="6.28617">
        <ele>805</ele>
        <time>2022-06-05T00:57:13Z</time>
      </trkpt>
      <trkpt lat="47.04799" lon="6.28699">
        <ele>805</ele>
        <time>2022-06-05T00:58:01Z</time>
      </trkpt>
      <trkpt lat="47.04772" lon="6.28723">
        <ele>801</ele>
        <time>2022-06-05T00:58:27Z</time>
      </trkpt>
      <trkpt lat="47.04745" lon="6.28742">
        <ele>796</ele>
        <time>2022-06-05T00:58:51Z</time>
      </trkpt>
      <trkpt lat="47.04744" lon="6.28739">
        <ele>796</ele>
        <time>2022-06-05T00:58:52Z</time>
      </trkpt>
      <trkpt lat="47.0475" lon="6.28765">
        <ele>796</ele>
        <time>2022-06-05T00:59:07Z</time>
      </trkpt>
      <trkpt lat="47.04787" lon="6.28873">
        <ele>795</ele>
        <time>2022-06-05T01:00:13Z</time>
      </trkpt>
      <trkpt lat="47.04791" lon="6.28891">
        <ele>795</ele>
        <time>2022-06-05T01:00:23Z</time>
      </trkpt>
      <trkpt lat="47.04786" lon="6.28899">
        <ele>794</ele>
        <time>2022-06-05T01:00:29Z</time>
      </trkpt>
      <trkpt lat="47.04782" lon="6.28926">
        <ele>792</ele>
        <time>2022-06-05T01:00:44Z</time>
      </trkpt>
      <trkpt lat="47.04756" lon="6.29002">
        <ele>789</ele>
        <time>2022-06-05T01:01:30Z</time>
      </trkpt>
      <trkpt lat="47.04752" lon="6.2901">
        <ele>788</ele>
        <time>2022-06-05T01:01:36Z</time>
      </trkpt>
      <trkpt lat="47.04745" lon="6.29018">
        <ele>787</ele>
        <time>2022-06-05T01:01:43Z</time>
      </trkpt>
      <trkpt lat="47.04676" lon="6.29076">
        <ele>780</ele>
        <time>2022-06-05T01:02:47Z</time>
      </trkpt>
      <trkpt lat="47.04652" lon="6.29089">
        <ele>776</ele>
        <time>2022-06-05T01:03:07Z</time>
      </trkpt>
      <trkpt lat="47.04644" lon="6.29097">
        <ele>774</ele>
        <time>2022-06-05T01:03:15Z</time>
      </trkpt>
      <trkpt lat="47.04625" lon="6.29126">
        <ele>772</ele>
        <time>2022-06-05T01:03:37Z</time>
      </trkpt>
      <trkpt lat="47.04571" lon="6.29184">
        <ele>769</ele>
        <time>2022-06-05T01:04:31Z</time>
      </trkpt>
      <trkpt lat="47.0455" lon="6.29198">
        <ele>766</ele>
        <time>2022-06-05T01:04:49Z</time>
      </trkpt>
      <trkpt lat="47.04518" lon="6.2921">
        <ele>762</ele>
        <time>2022-06-05T01:05:16Z</time>
      </trkpt>
      <trkpt lat="47.04497" lon="6.29221">
        <ele>759</ele>
        <time>2022-06-05T01:05:34Z</time>
      </trkpt>
      <trkpt lat="47.04485" lon="6.29224">
        <ele>757</ele>
        <time>2022-06-05T01:05:43Z</time>
      </trkpt>
      <trkpt lat="47.04478" lon="6.29223">
        <ele>756</ele>
        <time>2022-06-05T01:05:49Z</time>
      </trkpt>
      <trkpt lat="47.04451" lon="6.29207">
        <ele>750</ele>
        <time>2022-06-05T01:06:12Z</time>
      </trkpt>
      <trkpt lat="47.04441" lon="6.29199">
        <ele>747</ele>
        <time>2022-06-05T01:06:21Z</time>
      </trkpt>
      <trkpt lat="47.04427" lon="6.29176">
        <ele>743</ele>
        <time>2022-06-05T01:06:38Z</time>
      </trkpt>
      <trkpt lat="47.04421" lon="6.29172">
        <ele>742</ele>
        <time>2022-06-05T01:06:43Z</time>
      </trkpt>
      <trkpt lat="47.04379" lon="6.29173">
        <ele>739</ele>
        <time>2022-06-05T01:07:17Z</time>
      </trkpt>
      <trkpt lat="47.04352" lon="6.29176">
        <ele>738</ele>
        <time>2022-06-05T01:07:39Z</time>
      </trkpt>
      <trkpt lat="47.04339" lon="6.29174">
        <ele>737</ele>
        <time>2022-06-05T01:07:49Z</time>
      </trkpt>
      <trkpt lat="47.04324" lon="6.29162">
        <ele>735</ele>
        <time>2022-06-05T01:08:03Z</time>
      </trkpt>
      <trkpt lat="47.04311" lon="6.29146">
        <ele>732</ele>
        <time>2022-06-05T01:08:17Z</time>
      </trkpt>
      <trkpt lat="47.0429" lon="6.29115">
        <ele>727</ele>
        <time>2022-06-05T01:08:40Z</time>
      </trkpt>
      <trkpt lat="47.04273" lon="6.29102">
        <ele>726</ele>
        <time>2022-06-05T01:08:56Z</time>
      </trkpt>
      <trkpt lat="47.04251" lon="6.29081">
        <ele>725</ele>
        <time>2022-06-05T01:09:16Z</time>
      </trkpt>
      <trkpt lat="47.04245" lon="6.29078">
        <ele>724</ele>
        <time>2022-06-05T01:09:22Z</time>
      </trkpt>
      <trkpt lat="47.04233" lon="6.29076">
        <ele>722</ele>
        <time>2022-06-05T01:09:32Z</time>
      </trkpt>
      <trkpt lat="47.04222" lon="6.29084">
        <ele>723</ele>
        <time>2022-06-05T01:09:41Z</time>
      </trkpt>
      <trkpt lat="47.0421" lon="6.29101">
        <ele>724</ele>
        <time>2022-06-05T01:09:54Z</time>
      </trkpt>
      <trkpt lat="47.04199" lon="6.2913">
        <ele>726</ele>
        <time>2022-06-05T01:10:13Z</time>
      </trkpt>
      <trkpt lat="47.04194" lon="6.29138">
        <ele>727</ele>
        <time>2022-06-05T01:10:18Z</time>
      </trkpt>
      <trkpt lat="47.04187" lon="6.29143">
        <ele>728</ele>
        <time>2022-06-05T01:10:25Z</time>
      </trkpt>
      <trkpt lat="47.04173" lon="6.29143">
        <ele>728</ele>
        <time>2022-06-05T01:10:36Z</time>
      </trkpt>
      <trkpt lat="47.04159" lon="6.29138">
        <ele>729</ele>
        <time>2022-06-05T01:10:47Z</time>
      </trkpt>
      <trkpt lat="47.04128" lon="6.29122">
        <ele>732</ele>
        <time>2022-06-05T01:11:14Z</time>
      </trkpt>
      <trkpt lat="47.04107" lon="6.29103">
        <ele>732</ele>
        <time>2022-06-05T01:11:34Z</time>
      </trkpt>
      <trkpt lat="47.04087" lon="6.29074">
        <ele>728</ele>
        <time>2022-06-05T01:11:56Z</time>
      </trkpt>
      <trkpt lat="47.04065" lon="6.29035">
        <ele>714</ele>
        <time>2022-06-05T01:12:24Z</time>
      </trkpt>
      <trkpt lat="47.04059" lon="6.29028">
        <ele>712</ele>
        <time>2022-06-05T01:12:30Z</time>
      </trkpt>
      <trkpt lat="47.04049" lon="6.29023">
        <ele>710</ele>
        <time>2022-06-05T01:12:39Z</time>
      </trkpt>
      <trkpt lat="47.03992" lon="6.29007">
        <ele>704</ele>
        <time>2022-06-05T01:13:25Z</time>
      </trkpt>
      <trkpt lat="47.03985" lon="6.28943">
        <ele>683</ele>
        <time>2022-06-05T01:14:01Z</time>
      </trkpt>
      <trkpt lat="47.03997" lon="6.28886">
        <ele>663</ele>
        <time>2022-06-05T01:14:33Z</time>
      </trkpt>
      <trkpt lat="47.04045" lon="6.28883">
        <ele>651</ele>
        <time>2022-06-05T01:15:12Z</time>
      </trkpt>
      <trkpt lat="47.0406" lon="6.28856">
        <ele>633</ele>
        <time>2022-06-05T01:15:31Z</time>
      </trkpt>
      <trkpt lat="47.04046" lon="6.28812">
        <ele>617</ele>
        <time>2022-06-05T01:15:57Z</time>
      </trkpt>
      <trkpt lat="47.04038" lon="6.2875">
        <ele>596</ele>
        <time>2022-06-05T01:16:32Z</time>
      </trkpt>
      <trkpt lat="47.04035" lon="6.2865">
        <ele>558</ele>
        <time>2022-06-05T01:17:27Z</time>
      </trkpt>
      <trkpt lat="47.04036" lon="6.28611">
        <ele>549</ele>
        <time>2022-06-05T01:17:48Z</time>
      </trkpt>
      <trkpt lat="47.04047" lon="6.28589">
        <ele>542</ele>
        <time>2022-06-05T01:18:03Z</time>
      </trkpt>
      <trkpt lat="47.0405" lon="6.28555">
        <ele>537</ele>
        <time>2022-06-05T01:18:21Z</time>
      </trkpt>
      <trkpt lat="47.04055" lon="6.28526">
        <ele>533</ele>
        <time>2022-06-05T01:18:37Z</time>
      </trkpt>
      <trkpt lat="47.04041" lon="6.28509">
        <ele>531</ele>
        <time>2022-06-05T01:18:52Z</time>
      </trkpt>
      <trkpt lat="47.04028" lon="6.28497">
        <ele>529</ele>
        <time>2022-06-05T01:19:04Z</time>
      </trkpt>
      <trkpt lat="47.04016" lon="6.28482">
        <ele>526</ele>
        <time>2022-06-05T01:19:17Z</time>
      </trkpt>
      <trkpt lat="47.04013" lon="6.28472">
        <ele>523</ele>
        <time>2022-06-05T01:19:23Z</time>
      </trkpt>
      <trkpt lat="47.04014" lon="6.28462">
        <ele>520</ele>
        <time>2022-06-05T01:19:28Z</time>
      </trkpt>
      <trkpt lat="47.04008" lon="6.28428">
        <ele>511</ele>
        <time>2022-06-05T01:19:48Z</time>
      </trkpt>
      <trkpt lat="47.04009" lon="6.28421">
        <ele>510</ele>
        <time>2022-06-05T01:19:52Z</time>
      </trkpt>
      <trkpt lat="47.04006" lon="6.28393">
        <ele>501</ele>
        <time>2022-06-05T01:20:07Z</time>
      </trkpt>
      <trkpt lat="47.04006" lon="6.28388">
        <ele>500</ele>
        <time>2022-06-05T01:20:10Z</time>
      </trkpt>
      <trkpt lat="47.04015" lon="6.28379">
        <ele>498</ele>
        <time>2022-06-05T01:20:19Z</time>
      </trkpt>
      <trkpt lat="47.04021" lon="6.28362">
        <ele>493</ele>
        <time>2022-06-05T01:20:29Z</time>
      </trkpt>
      <trkpt lat="47.04042" lon="6.28322">
        <ele>484</ele>
        <time>2022-06-05T01:20:57Z</time>
      </trkpt>
      <trkpt lat="47.04044" lon="6.28311">
        <ele>482</ele>
        <time>2022-06-05T01:21:03Z</time>
      </trkpt>
      <trkpt lat="47.0405" lon="6.28296">
        <ele>480</ele>
        <time>2022-06-05T01:21:12Z</time>
      </trkpt>
      <trkpt lat="47.04055" lon="6.28268">
        <ele>475</ele>
        <time>2022-06-05T01:21:28Z</time>
      </trkpt>
      <trkpt lat="47.04065" lon="6.2824">
        <ele>470</ele>
        <time>2022-06-05T01:21:45Z</time>
      </trkpt>
      <trkpt lat="47.04068" lon="6.28223">
        <ele>468</ele>
        <time>2022-06-05T01:21:55Z</time>
      </trkpt>
      <trkpt lat="47.04069" lon="6.2819">
        <ele>464</ele>
        <time>2022-06-05T01:22:13Z</time>
      </trkpt>
      <trkpt lat="47.04072" lon="6.28181">
        <ele>462</ele>
        <time>2022-06-05T01:22:19Z</time>
      </trkpt>
      <trkpt lat="47.04084" lon="6.28168">
        <ele>461</ele>
        <time>2022-06-05T01:22:30Z</time>
      </trkpt>
      <trkpt lat="47.04087" lon="6.28147">
        <ele>458</ele>
        <time>2022-06-05T01:22:42Z</time>
      </trkpt>
      <trkpt lat="47.04084" lon="6.28123">
        <ele>453</ele>
        <time>2022-06-05T01:22:55Z</time>
      </trkpt>
      <trkpt lat="47.04074" lon="6.28107">
        <ele>449</ele>
        <time>2022-06-05T01:23:07Z</time>
      </trkpt>
      <trkpt lat="47.04063" lon="6.28101">
        <ele>448</ele>
        <time>2022-06-05T01:23:16Z</time>
      </trkpt>
      <trkpt lat="47.04052" lon="6.28087">
        <ele>446</ele>
        <time>2022-06-05T01:23:28Z</time>
      </trkpt>
      <trkpt lat="47.04051" lon="6.28073">
        <ele>444</ele>
        <time>2022-06-05T01:23:35Z</time>
      </trkpt>
      <trkpt lat="47.04053" lon="6.28043">
        <ele>442</ele>
        <time>2022-06-05T01:23:52Z</time>
      </trkpt>
      <trkpt lat="47.0406" lon="6.28003">
        <ele>441</ele>
        <time>2022-06-05T01:24:14Z</time>
      </trkpt>
      <trkpt lat="47.04036" lon="6.27986">
        <ele>439</ele>
        <time>2022-06-05T01:24:36Z</time>
      </trkpt>
      <trkpt lat="47.04009" lon="6.27977">
        <ele>435</ele>
        <time>2022-06-05T01:24:58Z</time>
      </trkpt>
      <trkpt lat="47.0398" lon="6.27961">
        <ele>431</ele>
        <time>2022-06-05T01:25:23Z</time>
      </trkpt>
      <trkpt lat="47.03974" lon="6.27955">
        <ele>430</ele>
        <time>2022-06-05T01:25:29Z</time>
      </trkpt>
      <trkpt lat="47.03959" lon="6.27927">
        <ele>428</ele>
        <time>2022-06-05T01:25:48Z</time>
      </trkpt>
      <trkpt lat="47.03951" lon="6.27922">
        <ele>427</ele>
        <time>2022-06-05T01:25:55Z</time>
      </trkpt>
      <trkpt lat="47.03938" lon="6.27917">
        <ele>425</ele>
        <time>2022-06-05T01:26:05Z</time>
      </trkpt>
      <trkpt lat="47.03895" lon="6.2791">
        <ele>418</ele>
        <time>2022-06-05T01:26:41Z</time>
      </trkpt>
      <trkpt lat="47.03887" lon="6.27907">
        <ele>416</ele>
        <time>2022-06-05T01:26:47Z</time>
      </trkpt>
      <trkpt lat="47.0387" lon="6.27892">
        <ele>413</ele>
        <time>2022-06-05T01:27:03Z</time>
      </trkpt>
      <trkpt lat="47.03865" lon="6.27881">
        <ele>411</ele>
        <time>2022-06-05T01:27:10Z</time>
      </trkpt>
      <trkpt lat="47.03862" lon="6.27868">
        <ele>410</ele>
        <time>2022-06-05T01:27:18Z</time>
      </trkpt>
      <trkpt lat="47.03862" lon="6.27853">
        <ele>410</ele>
        <time>2022-06-05T01:27:26Z</time>
      </trkpt>
      <trkpt lat="47.03875" lon="6.27775">
        <ele>413</ele>
        <time>2022-06-05T01:28:10Z</time>
      </trkpt>
      <trkpt lat="47.03876" lon="6.27758">
        <ele>413</ele>
        <time>2022-06-05T01:28:19Z</time>
      </trkpt>
      <trkpt lat="47.03885" lon="6.27757">
        <ele>414</ele>
        <time>2022-06-05T01:28:26Z</time>
      </trkpt>
      <trkpt lat="47.03892" lon="6.27737">
        <ele>415</ele>
        <time>2022-06-05T01:28:38Z</time>
      </trkpt>
      <trkpt lat="47.03895" lon="6.27697">
        <ele>416</ele>
        <time>2022-06-05T01:29:01Z</time>
      </trkpt>
      <trkpt lat="47.03894" lon="6.27693">
        <ele>416</ele>
        <time>2022-06-05T01:29:02Z</time>
      </trkpt>
      <trkpt lat="47.0388" lon="6.27679">
        <ele>414</ele>
        <time>2022-06-05T01:29:16Z</time>
      </trkpt>
      <trkpt lat="47.03898" lon="6.27605">
        <ele>418</ele>
        <time>2022-06-05T01:29:59Z</time>
      </trkpt>
      <trkpt lat="47.039" lon="6.27609">
        <ele>418</ele>
        <time>2022-06-05T01:30:02Z</time>
      </trkpt>
      <trkpt lat="47.03884" lon="6.27549">
        <ele>417</ele>
        <time>2022-06-05T01:30:37Z</time>
      </trkpt>
      <trkpt lat="47.03911" lon="6.27556">
        <ele>422</ele>
        <time>2022-06-05T01:30:59Z</time>
      </trkpt>
      <trkpt lat="47.03921" lon="6.27556">
        <ele>423</ele>
        <time>2022-06-05T01:31:07Z</time>
      </trkpt>
      <trkpt lat="47.03932" lon="6.27547">
        <ele>424</ele>
        <time>2022-06-05T01:31:17Z</time>
      </trkpt>
      <trkpt lat="47.03939" lon="6.27539">
        <ele>425</ele>
        <time>2022-06-05T01:31:24Z</time>
      </trkpt>
      <trkpt lat="47.03943" lon="6.27526">
        <ele>426</ele>
        <time>2022-06-05T01:31:32Z</time>
      </trkpt>
      <trkpt lat="47.03946" lon="6.2752">
        <ele>426</ele>
        <time>2022-06-05T01:31:36Z</time>
      </trkpt>
      <trkpt lat="47.03957" lon="6.2752">
        <ele>427</ele>
        <time>2022-06-05T01:31:45Z</time>
      </trkpt>
      <trkpt lat="47.03983" lon="6.27513">
        <ele>429</ele>
        <time>2022-06-05T01:32:06Z</time>
      </trkpt>
      <trkpt lat="47.04023" lon="6.27502">
        <ele>433</ele>
        <time>2022-06-05T01:32:38Z</time>
      </trkpt>
      <trkpt lat="47.04027" lon="6.27499">
        <ele>433</ele>
        <time>2022-06-05T01:32:42Z</time>
      </trkpt>
      <trkpt lat="47.04029" lon="6.27504">
        <ele>433</ele>
        <time>2022-06-05T01:32:45Z</time>
      </trkpt>
      <trkpt lat="47.04027" lon="6.27499">
        <ele>433</ele>
        <time>2022-06-05T01:32:48Z</time>
      </trkpt>
      <trkpt lat="47.04031" lon="6.27491">
        <ele>433</ele>
        <time>2022-06-05T01:32:53Z</time>
      </trkpt>
      <trkpt lat="47.04051" lon="6.27421">
        <ele>435</ele>
        <time>2022-06-05T01:33:35Z</time>
      </trkpt>
      <trkpt lat="47.04051" lon="6.27406">
        <ele>435</ele>
        <time>2022-06-05T01:33:43Z</time>
      </trkpt>
      <trkpt lat="47.04089" lon="6.27375">
        <ele>440</ele>
        <time>2022-06-05T01:34:18Z</time>
      </trkpt>
      <trkpt lat="47.04101" lon="6.2736">
        <ele>444</ele>
        <time>2022-06-05T01:34:30Z</time>
      </trkpt>
      <trkpt lat="47.04104" lon="6.27349">
        <ele>445</ele>
        <time>2022-06-05T01:34:37Z</time>
      </trkpt>
      <trkpt lat="47.04114" lon="6.27289">
        <ele>446</ele>
        <time>2022-06-05T01:35:11Z</time>
      </trkpt>
      <trkpt lat="47.04121" lon="6.27191">
        <ele>446</ele>
        <time>2022-06-05T01:36:04Z</time>
      </trkpt>
      <trkpt lat="47.04116" lon="6.27165">
        <ele>444</ele>
        <time>2022-06-05T01:36:20Z</time>
      </trkpt>
      <trkpt lat="47.04112" lon="6.27135">
        <ele>444</ele>
        <time>2022-06-05T01:36:36Z</time>
      </trkpt>
      <trkpt lat="47.04106" lon="6.27031">
        <ele>449</ele>
        <time>2022-06-05T01:37:33Z</time>
      </trkpt>
      <trkpt lat="47.04106" lon="6.26888">
        <ele>460</ele>
        <time>2022-06-05T01:38:52Z</time>
      </trkpt>
      <trkpt lat="47.04114" lon="6.26847">
        <ele>466</ele>
        <time>2022-06-05T01:39:15Z</time>
      </trkpt>
      <trkpt lat="47.04116" lon="6.26803">
        <ele>469</ele>
        <time>2022-06-05T01:39:39Z</time>
      </trkpt>
      <trkpt lat="47.0412" lon="6.26768">
        <ele>471</ele>
        <time>2022-06-05T01:39:58Z</time>
      </trkpt>
      <trkpt lat="47.04122" lon="6.26742">
        <ele>472</ele>
        <time>2022-06-05T01:40:13Z</time>
      </trkpt>
      <trkpt lat="47.0413" lon="6.2669">
        <ele>472</ele>
        <time>2022-06-05T01:40:42Z</time>
      </trkpt>
      <trkpt lat="47.04127" lon="6.2662">
        <ele>471</ele>
        <time>2022-06-05T01:41:20Z</time>
      </trkpt>
      <trkpt lat="47.04127" lon="6.26583">
        <ele>470</ele>
        <time>2022-06-05T01:41:40Z</time>
      </trkpt>
      <trkpt lat="47.04138" lon="6.2656">
        <ele>466</ele>
        <time>2022-06-05T01:41:55Z</time>
      </trkpt>
      <trkpt lat="47.04147" lon="6.26548">
        <ele>464</ele>
        <time>2022-06-05T01:42:05Z</time>
      </trkpt>
      <trkpt lat="47.04179" lon="6.26525">
        <ele>460</ele>
        <time>2022-06-05T01:42:33Z</time>
      </trkpt>
      <trkpt lat="47.0423" lon="6.2652">
        <ele>462</ele>
        <time>2022-06-05T01:43:15Z</time>
      </trkpt>
      <trkpt lat="47.04243" lon="6.26509">
        <ele>461</ele>
        <time>2022-06-05T01:43:27Z</time>
      </trkpt>
      <trkpt lat="47.04247" lon="6.26498">
        <ele>459</ele>
        <time>2022-06-05T01:43:33Z</time>
      </trkpt>
      <trkpt lat="47.04252" lon="6.26467">
        <ele>455</ele>
        <time>2022-06-05T01:43:51Z</time>
      </trkpt>
      <trkpt lat="47.04261" lon="6.26445">
        <ele>453</ele>
        <time>2022-06-05T01:44:05Z</time>
      </trkpt>
      <trkpt lat="47.04309" lon="6.2638">
        <ele>455</ele>
        <time>2022-06-05T01:44:57Z</time>
      </trkpt>
      <trkpt lat="47.04339" lon="6.26344">
        <ele>457</ele>
        <time>2022-06-05T01:45:28Z</time>
      </trkpt>
      <trkpt lat="47.04343" lon="6.26329">
        <ele>457</ele>
        <time>2022-06-05T01:45:37Z</time>
      </trkpt>
      <trkpt lat="47.04337" lon="6.26272">
        <ele>460</ele>
        <time>2022-06-05T01:46:09Z</time>
      </trkpt>
      <trkpt lat="47.04338" lon="6.26204">
        <ele>463</ele>
        <time>2022-06-05T01:46:45Z</time>
      </trkpt>
      <trkpt lat="47.04336" lon="6.26161">
        <ele>463</ele>
        <time>2022-06-05T01:47:09Z</time>
      </trkpt>
      <trkpt lat="47.04327" lon="6.26063">
        <ele>465</ele>
        <time>2022-06-05T01:48:03Z</time>
      </trkpt>
      <trkpt lat="47.04318" lon="6.26027">
        <ele>464</ele>
        <time>2022-06-05T01:48:24Z</time>
      </trkpt>
      <trkpt lat="47.04304" lon="6.25946">
        <ele>461</ele>
        <time>2022-06-05T01:49:10Z</time>
      </trkpt>
      <trkpt lat="47.04303" lon="6.25903">
        <ele>462</ele>
        <time>2022-06-05T01:49:33Z</time>
      </trkpt>
      <trkpt lat="47.0429" lon="6.25785">
        <ele>461</ele>
        <time>2022-06-05T01:50:38Z</time>
      </trkpt>
      <trkpt lat="47.04298" lon="6.25699">
        <ele>459</ele>
        <time>2022-06-05T01:51:26Z</time>
      </trkpt>
      <trkpt lat="47.04306" lon="6.25674">
        <ele>462</ele>
        <time>2022-06-05T01:51:41Z</time>
      </trkpt>
      <trkpt lat="47.0431" lon="6.256">
        <ele>454</ele>
        <time>2022-06-05T01:52:22Z</time>
      </trkpt>
      <trkpt lat="47.04331" lon="6.25572">
        <ele>461</ele>
        <time>2022-06-05T01:52:44Z</time>
      </trkpt>
      <trkpt lat="47.04341" lon="6.25524">
        <ele>457</ele>
        <time>2022-06-05T01:53:12Z</time>
      </trkpt>
      <trkpt lat="47.04339" lon="6.25433">
        <ele>439</ele>
        <time>2022-06-05T01:54:01Z</time>
      </trkpt>
      <trkpt lat="47.04355" lon="6.25292">
        <ele>416</ele>
        <time>2022-06-05T01:55:19Z</time>
      </trkpt>
      <trkpt lat="47.04387" lon="6.25235">
        <ele>413</ele>
        <time>2022-06-05T01:56:00Z</time>
      </trkpt>
      <trkpt lat="47.0441" lon="6.25174">
        <ele>407</ele>
        <time>2022-06-05T01:56:38Z</time>
      </trkpt>
      <trkpt lat="47.04415" lon="6.25142">
        <ele>405</ele>
        <time>2022-06-05T01:56:56Z</time>
      </trkpt>
      <trkpt lat="47.04449" lon="6.25038">
        <ele>404</ele>
        <time>2022-06-05T01:57:59Z</time>
      </trkpt>
      <trkpt lat="47.04404" lon="6.25075">
        <ele>394</ele>
        <time>2022-06-05T01:58:40Z</time>
      </trkpt>
      <trkpt lat="47.04385" lon="6.25128">
        <ele>395</ele>
        <time>2022-06-05T01:59:13Z</time>
      </trkpt>
      <trkpt lat="47.0438" lon="6.25135">
        <ele>394</ele>
        <time>2022-06-05T01:59:19Z</time>
      </trkpt>
      <trkpt lat="47.04374" lon="6.25141">
        <ele>393</ele>
        <time>2022-06-05T01:59:25Z</time>
      </trkpt>
      <trkpt lat="47.04354" lon="6.25149">
        <ele>389</ele>
        <time>2022-06-05T01:59:41Z</time>
      </trkpt>
      <trkpt lat="47.04349" lon="6.25154">
        <ele>388</ele>
        <time>2022-06-05T01:59:46Z</time>
      </trkpt>
      <trkpt lat="47.04346" lon="6.25153">
        <ele>387</ele>
        <time>2022-06-05T01:59:48Z</time>
      </trkpt>
      <trkpt lat="47.04344" lon="6.25149">
        <ele>386</ele>
        <time>2022-06-05T01:59:51Z</time>
      </trkpt>
      <trkpt lat="47.04345" lon="6.25145">
        <ele>386</ele>
        <time>2022-06-05T01:59:53Z</time>
      </trkpt>
      <trkpt lat="47.04357" lon="6.25129">
        <ele>387</ele>
        <time>2022-06-05T02:00:06Z</time>
      </trkpt>
      <trkpt lat="47.04359" lon="6.25118">
        <ele>386</ele>
        <time>2022-06-05T02:00:13Z</time>
      </trkpt>
      <trkpt lat="47.04359" lon="6.25091">
        <ele>383</ele>
        <time>2022-06-05T02:00:27Z</time>
      </trkpt>
      <trkpt lat="47.04362" lon="6.25079">
        <ele>383</ele>
        <time>2022-06-05T02:00:34Z</time>
      </trkpt>
      <trkpt lat="47.04369" lon="6.25068">
        <ele>384</ele>
        <time>2022-06-05T02:00:43Z</time>
      </trkpt>
      <trkpt lat="47.04387" lon="6.25044">
        <ele>386</ele>
        <time>2022-06-05T02:01:02Z</time>
      </trkpt>
      <trkpt lat="47.04389" lon="6.25036">
        <ele>385</ele>
        <time>2022-06-05T02:01:07Z</time>
      </trkpt>
      <trkpt lat="47.04365" lon="6.25066">
        <ele>383</ele>
        <time>2022-06-05T02:01:33Z</time>
      </trkpt>
      <trkpt lat="47.0435" lon="6.25029">
        <ele>377</ele>
        <time>2022-06-05T02:01:56Z</time>
      </trkpt>
      <trkpt lat="47.04361" lon="6.25009">
        <ele>378</ele>
        <time>2022-06-05T02:02:10Z</time>
      </trkpt>
      <trkpt lat="47.04335" lon="6.24956">
        <ele>382</ele>
        <time>2022-06-05T02:02:45Z</time>
      </trkpt>
      <trkpt lat="47.04334" lon="6.24946">
        <ele>384</ele>
        <time>2022-06-05T02:02:51Z</time>
      </trkpt>
      <trkpt lat="47.04336" lon="6.24934">
        <ele>386</ele>
        <time>2022-06-05T02:02:57Z</time>
      </trkpt>
      <trkpt lat="47.0434" lon="6.24932">
        <ele>385</ele>
        <time>2022-06-05T02:03:01Z</time>
      </trkpt>
      <trkpt lat="47.04348" lon="6.24922">
        <ele>386</ele>
        <time>2022-06-05T02:03:09Z</time>
      </trkpt>
      <trkpt lat="47.04351" lon="6.24914">
        <ele>386</ele>
        <time>2022-06-05T02:03:14Z</time>
      </trkpt>
    </trkseg>
  </trk>
</gpx>